Deer Isle, ME (04627)

4:07 AM EDT on October 24, 2014 (GMT -0400)
Southeast Harbor Stonington, ME | Change Station
CLOSE
Current Station
Personal Weather Station
Location: Stonington, ME
Elevation: 28 ft
Nearby Weather Stations
Active Advisory: Areal Flood Advisory Active Notice: Record Report

Elev 28 ft 44.20 °N, 68.64 °W | Updated 13 seconds ago

Overcast
Overcast
57.8 °F
Feels Like 57.8 °F
N
0.0
Wind Variable Wind from NW
Gusts 3.0 mph

Today
High -- | Low -- °F
--% Chance of Precip.
Yesterday
High -- | Low -- °F
Precip. -- in
7:00 AM 5:35 PM
New Moon, 0% visible
Pressure 29.64 in
Visibility 10.0 miles
Clouds Overcast 1100 ft
Dew Point 58 °F
Humidity 100%
Rainfall 0.00 in
Snow Depth Not available.
UV 0 out of 12
Pollen .10 out of 12
Ozone Good
Flu Activity Sporadic
METAR KBHB 240755Z AUTO 01010G14KT 10SM OVC011 10/10 A2964 RMK AO1

More Conditions Fewer Conditions

Pressure 29.64 in
Visibility 10.0 miles
Clouds Overcast 1100 ft
Dew Point 58 °F
Humidity 100%
Rainfall 0.00 in
Snow Depth Not available.
UV 0 out of 12
Pollen .10 out of 12
Ozone Good
Flu Activity Sporadic
METAR KBHB 240755Z AUTO 01010G14KT 10SM OVC011 10/10 A2964 RMK AO1

More Conditions Fewer Conditions

10-Day Weather Forecast

Almanac

Astronomy

Oct. 24, 2014 Rise Set
Actual Time 7:00 AM EDT 5:35 PM EDT
Civil Twilight 6:31 AM EDT 6:05 PM EDT
Nautical Twilight 5:57 AM EDT 6:39 PM EDT
Astronomical Twilight 5:23 AM EDT 7:12 PM EDT
Moon 7:37 AM EDT 6:11 PM EDT
Length of Visible Light 11h 34m
Length of Day
10h 35m
Tomorrow will be 2m 50s shorter.
New Moon, 0% of the Moon is Illuminated
Today
New Moon
Oct 30
First Quarter
Nov 6
Full
Nov 14
Last Quarter
Nov 22
New

Today's Extremes

State Highs State Lows

Community

WunderPhotos

Upload Photos

1,764,512 photos uploaded!

WunderBlogs® & News

Nearby

Air Quality

  Air Quality AQ Index Pollutant
Yesterday Good
OZONE
Yesterday Good
PM2.5
Current Good
OZONE
Friday Good
OZONE
Friday Good
PM2.5
Saturday Good
OZONE
Saturday Good
PM2.5

Snow Depth

Station Depth Elevation
No new snow has been reported.

Earthquake Activity

City Distance Mag. Time & Date
No recent earthquake activity has been reported nearby.
Minimum magnitude displayed is 2.5.

Coastal Water Temperatures

Place Temperature
Bar Harbor, ME 54.0 °F
Eastport, ME 54.0 °F

Nearby Weather Stations